Myrnam, Canada
Current Conditions -  °F | °C
As of 2:00 AM on Wednesday 26 Nov 2014 (Local Time) from CYLL Reporting Station
Light Snow Light Snow  
Wind Chill:   Ceiling: 6000
Heat Index:   Visibility: 9mi
Dew Point:   Wind: 3mph
Humidity: 85%   Direction: 100°E
Pressure: 30.27"   Gusts: NA
Location:  53.67°N, 111.23°W
Report Text: CYLL 260900Z AUTO 10003KT 9SM -SN OVC060 M16/M18 A3027 RMK SLP312
Loading
Personal Weather Stations






























Interactive Weather Map New forecast layout! Learn more

10-Day Weather Forecast

Advertisements
Track Severe Weather on mobile